Time;durP1;ratioP1;P1;durP2;ratioP2;P2;SDS_P1;SDS_P2;PMS_P1;PMS_P2;Temp;Humidity;BMP_temperature;BMP_pressure;BME280_temperature;BME280_humidity;BME280_pressure;Samples;Min_cycle;Max_cycle;Signal;HPM_P1;HPM_P2
2021/12/22 00:02:07;;;;;;;10.70;7.72;;;16.40;32.20;;;;;;5100729;28;20015;-42
2021/12/22 00:04:39;;;;;;;12.13;7.78;;;16.30;32.20;;;;;;5066671;28;20077;-43
2021/12/22 00:07:05;;;;;;;10.75;7.70;;;16.30;32.00;;;;;;5101767;28;20020;-41
2021/12/22 00:09:31;;;;;;;11.77;8.20;;;16.30;32.10;;;;;;5119174;28;20039;-39
2021/12/22 00:11:56;;;;;;;12.50;7.82;;;16.30;32.10;;;;;;5102036;28;20492;-43
2021/12/22 00:14:22;;;;;;;10.80;7.40;;;16.30;32.10;;;;;;5102274;28;20087;-40
2021/12/22 00:16:47;;;;;;;10.65;7.82;;;16.30;32.20;;;;;;5085260;28;20405;-41
2021/12/22 00:19:13;;;;;;;11.50;7.90;;;16.30;32.10;;;;;;5102073;28;20486;-44
2021/12/22 00:21:40;;;;;;;11.75;8.02;;;16.30;32.20;;;;;;5119310;28;20027;-39
2021/12/22 00:24:07;;;;;;;10.52;7.47;;;16.20;32.00;;;;;;5100979;28;20359;-41
2021/12/22 00:26:32;;;;;;;12.80;8.10;;;16.20;32.10;;;;;;5119560;28;20050;-40
2021/12/22 00:28:58;;;;;;;11.45;7.72;;;16.30;32.00;;;;;;5101537;28;20577;-39
2021/12/22 00:31:24;;;;;;;11.68;7.93;;;16.20;32.10;;;;;;5100362;28;20020;-39
2021/12/22 00:33:51;;;;;;;12.18;8.10;;;16.30;32.10;;;;;;5100614;28;20016;-38
2021/12/22 00:36:20;;;;;;;10.93;8.00;;;16.20;32.10;;;;;;5084729;28;20024;-43
2021/12/22 00:38:46;;;;;;;12.40;8.10;;;16.20;32.10;;;;;;5119725;28;20505;-39
2021/12/22 00:41:12;;;;;;;11.80;8.07;;;16.20;32.10;;;;;;5118064;28;20012;-39
2021/12/22 00:43:38;;;;;;;12.43;8.32;;;16.20;32.10;;;;;;5118222;28;20416;-39
2021/12/22 00:46:04;;;;;;;11.50;7.78;;;16.20;32.00;;;;;;5119029;28;20542;-39
2021/12/22 00:48:30;;;;;;;11.32;8.20;;;16.20;32.30;;;;;;5119168;28;20061;-39
2021/12/22 00:51:00;;;;;;;11.90;7.80;;;16.20;32.40;;;;;;5102005;28;20037;-39
2021/12/22 00:53:26;;;;;;;12.02;7.95;;;16.10;32.40;;;;;;5120320;28;20011;-43
2021/12/22 00:55:52;;;;;;;11.77;7.72;;;16.10;32.40;;;;;;5118405;28;20031;-38
2021/12/22 00:58:18;;;;;;;10.45;7.85;;;16.10;32.50;;;;;;5118139;28;20466;-39
2021/12/22 01:00:47;;;;;;;12.80;8.05;;;16.10;32.50;;;;;;5099454;28;20534;-39
2021/12/22 01:03:13;;;;;;;11.10;7.97;;;16.10;32.40;;;;;;5117697;28;20024;-38
2021/12/22 01:05:40;;;;;;;12.15;7.97;;;16.20;32.40;;;;;;5117481;28;20031;-38
2021/12/22 01:08:06;;;;;;;13.07;8.45;;;16.20;32.30;;;;;;5101091;28;20020;-40
2021/12/22 01:10:32;;;;;;;11.88;7.97;;;16.20;32.30;;;;;;5118344;28;20008;-39
2021/12/22 01:12:59;;;;;;;11.50;7.97;;;16.30;32.20;;;;;;5118741;28;20463;-40
2021/12/22 01:15:25;;;;;;;12.55;8.05;;;16.30;32.10;;;;;;5118990;28;20008;-39
2021/12/22 01:18:00;;;;;;;10.35;7.32;;;16.40;32.60;;;;;;5078753;28;20062;-39
2021/12/22 01:20:31;;;;;;;11.20;7.63;;;16.50;32.40;;;;;;5075934;28;20009;-39
2021/12/22 01:23:07;;;;;;;12.82;7.65;;;16.60;32.10;;;;;;5076706;28;20464;-39
2021/12/22 01:25:37;;;;;;;12.20;7.85;;;16.80;31.70;;;;;;5078063;28;20093;-41
2021/12/22 01:28:03;;;;;;;;;;;16.90;31.60;;;;;;5078401;28;20036;-39
2021/12/22 01:30:31;;;;;;;13.45;8.45;;;16.90;31.30;;;;;;5078044;28;19980;-39
2021/12/22 01:32:58;;;;;;;10.57;7.70;;;17.00;31.10;;;;;;5076722;28;20074;-40
2021/12/22 01:35:26;;;;;;;12.50;8.10;;;17.10;31.00;;;;;;5078071;28;20012;-41
2021/12/22 01:37:52;;;;;;;11.35;8.43;;;17.10;30.80;;;;;;5078470;28;20455;-38
2021/12/22 01:40:18;;;;;;;10.07;7.47;;;17.20;30.70;;;;;;5078515;28;20008;-40
2021/12/22 01:42:44;;;;;;;11.80;8.05;;;17.20;30.50;;;;;;5077308;28;20012;-40
2021/12/22 01:45:48;;;;;;;12.30;8.02;;;17.30;30.50;;;;;;5078057;28;20051;-40
2021/12/22 01:51:05;;;;;;;12.48;8.10;;;17.40;30.20;;;;;;5075966;28;20023;-38
2021/12/22 01:53:41;;;;;;;11.85;8.23;;;17.50;30.10;;;;;;5077503;28;20463;-39
2021/12/22 01:56:25;;;;;;;12.13;7.75;;;17.50;30.10;;;;;;5077961;28;20048;-38
2021/12/22 01:58:52;;;;;;;11.93;8.30;;;17.50;30.10;;;;;;5077653;28;20013;-39
2021/12/22 02:01:38;;;;;;;11.98;7.88;;;17.50;30.60;;;;;;5077412;28;20067;-39
2021/12/22 02:04:06;;;;;;;10.55;7.68;;;17.50;30.00;;;;;;5059420;28;20035;-40
2021/12/22 02:06:32;;;;;;;12.55;7.50;;;17.50;30.60;;;;;;5075831;28;20051;-40
2021/12/22 02:08:59;;;;;;;11.85;8.02;;;17.60;30.00;;;;;;5077242;28;20017;-40
2021/12/22 02:11:25;;;;;;;11.52;8.27;;;17.60;30.00;;;;;;5075655;28;20023;-39
2021/12/22 02:13:58;;;;;;;12.27;8.15;;;17.60;30.40;;;;;;5058977;28;20032;-40
2021/12/22 02:16:30;;;;;;;11.10;7.85;;;17.60;29.90;;;;;;5059366;28;20048;-40
2021/12/22 02:18:56;;;;;;;11.85;7.75;;;17.70;29.90;;;;;;5076362;28;20032;-40
2021/12/22 02:21:23;;;;;;;11.45;7.85;;;17.70;29.90;;;;;;5074601;28;20108;-39
2021/12/22 02:23:49;;;;;;;11.40;8.45;;;17.70;29.90;;;;;;5076742;28;20028;-38
2021/12/22 02:26:23;;;;;;;10.45;7.72;;;17.70;29.80;;;;;;5078081;28;20391;-41
2021/12/22 02:28:57;;;;;;;11.40;8.05;;;17.80;29.80;;;;;;5080402;28;20017;-40
2021/12/22 02:31:23;;;;;;;10.63;7.82;;;17.70;29.80;;;;;;5079539;28;20035;-42
2021/12/22 02:33:51;;;;;;;11.88;8.07;;;17.80;29.80;;;;;;5079194;28;20025;-41
2021/12/22 02:38:47;;;;;;;10.45;7.72;;;17.80;29.70;;;;;;5080251;28;20387;-43
2021/12/22 02:41:14;;;;;;;11.65;7.95;;;17.80;29.70;;;;;;5080582;28;20056;-43
2021/12/22 02:43:46;;;;;;;13.93;8.38;;;17.80;29.70;;;;;;5081232;28;20016;-43
2021/12/22 02:46:12;;;;;;;10.57;7.93;;;17.80;29.70;;;;;;5080442;28;20025;-41
2021/12/22 02:48:38;;;;;;;10.15;7.65;;;17.80;29.70;;;;;;5080732;28;20008;-44
2021/12/22 02:51:04;;;;;;;12.98;8.18;;;17.80;29.60;;;;;;5079886;28;20490;-41
2021/12/22 02:53:39;;;;;;;11.88;8.05;;;17.80;29.60;;;;;;5080176;28;20490;-39
2021/12/22 02:57:20;;;;;;;9.35;7.78;;;17.80;29.60;;;;;;5079887;28;20020;-41
2021/12/22 02:59:18;;;;;;;10.60;7.70;;;17.90;29.60;;;;;;5070496;28;20515;-40
2021/12/22 03:04:14;;;;;;;10.80;7.93;;;17.90;29.50;;;;;;5079939;28;20033;-40
2021/12/22 03:07:05;;;;;;;9.77;7.72;;;17.90;29.40;;;;;;5079791;28;20100;-39
2021/12/22 03:09:32;;;;;;;10.15;8.02;;;17.90;29.40;;;;;;5079730;28;20009;-40
2021/12/22 03:12:00;;;;;;;12.30;7.93;;;17.90;29.40;;;;;;5078993;28;20023;-42
2021/12/22 03:14:26;;;;;;;11.02;8.20;;;17.90;29.40;;;;;;5079112;28;20008;-40
2021/12/22 03:16:52;;;;;;;10.32;7.75;;;17.90;29.30;;;;;;5099537;28;20035;-40
2021/12/22 03:19:21;;;;;;;12.25;8.23;;;18.00;29.40;;;;;;5101668;28;20500;-41
2021/12/22 03:21:48;;;;;;;11.73;8.27;;;18.00;29.30;;;;;;5101727;28;20015;-40
2021/12/22 03:24:14;;;;;;;11.43;8.20;;;18.10;29.30;;;;;;5120199;28;20022;-41
2021/12/22 03:26:44;;;;;;;10.90;8.18;;;18.10;29.20;;;;;;5119169;28;20031;-40
2021/12/22 03:29:14;;;;;;;11.25;7.70;;;18.10;29.20;;;;;;5118907;28;20020;-40
2021/12/22 03:31:40;;;;;;;9.75;7.72;;;18.20;29.10;;;;;;5118223;28;20028;-39
2021/12/22 03:34:06;;;;;;;9.98;7.65;;;18.20;29.00;;;;;;5118097;28;20693;-39
2021/12/22 03:36:32;;;;;;;10.55;7.50;;;18.20;29.00;;;;;;5099796;28;20565;-39
2021/12/22 03:38:58;;;;;;;9.85;7.38;;;18.30;29.00;;;;;;5118181;28;20098;-38
2021/12/22 03:41:24;;;;;;;11.35;7.90;;;18.30;28.90;;;;;;5119101;28;20023;-39
2021/12/22 03:43:52;;;;;;;13.80;8.20;;;18.40;28.90;;;;;;5119041;28;20039;-40
2021/12/22 03:46:17;;;;;;;11.70;8.13;;;18.50;28.80;;;;;;5119192;28;20477;-40
2021/12/22 03:48:44;;;;;;;11.02;7.50;;;18.50;28.70;;;;;;5119299;28;20469;-40
2021/12/22 03:51:10;;;;;;;10.35;7.57;;;18.50;28.70;;;;;;5119447;28;20031;-40
2021/12/22 03:53:36;;;;;;;10.57;7.88;;;18.60;28.60;;;;;;5119037;28;20016;-42
2021/12/22 03:56:03;;;;;;;12.93;8.02;;;18.60;28.60;;;;;;5119150;28;20043;-39
2021/12/22 03:58:30;;;;;;;10.73;7.80;;;18.70;28.60;;;;;;5119219;28;20053;-39
2021/12/22 04:00:56;;;;;;;12.57;7.85;;;18.70;28.50;;;;;;5100612;28;20035;-39
2021/12/22 04:03:28;;;;;;;11.25;8.07;;;18.80;28.50;;;;;;5119223;28;20077;-38
2021/12/22 04:05:53;;;;;;;11.25;7.60;;;18.80;28.40;;;;;;5118442;28;20024;-39
2021/12/22 04:08:20;;;;;;;10.50;8.00;;;18.80;28.40;;;;;;5118874;28;20023;-39
2021/12/22 04:10:46;;;;;;;11.35;8.00;;;18.90;28.30;;;;;;5099470;28;20034;-39
2021/12/22 04:13:12;;;;;;;11.95;8.70;;;18.90;28.30;;;;;;5118228;28;20466;-39
2021/12/22 04:15:39;;;;;;;10.45;8.05;;;18.90;28.20;;;;;;5118074;28;20157;-40
2021/12/22 04:18:04;;;;;;;11.18;8.02;;;18.90;28.20;;;;;;5076527;28;20047;-39
2021/12/22 04:20:32;;;;;;;10.73;7.90;;;19.00;28.20;;;;;;5078268;28;20472;-38
2021/12/22 04:22:59;;;;;;;12.00;8.13;;;19.00;28.10;;;;;;5060305;28;20020;-40
2021/12/22 04:25:25;;;;;;;9.25;7.47;;;19.10;28.10;;;;;;5076126;28;20012;-39
2021/12/22 04:27:55;;;;;;;10.55;7.90;;;19.10;28.00;;;;;;5075777;28;20031;-39
2021/12/22 04:30:21;;;;;;;11.02;8.18;;;19.20;28.00;;;;;;5077140;28;20020;-41
2021/12/22 04:32:46;;;;;;;11.13;7.63;;;19.20;27.90;;;;;;5076328;28;20015;-39
2021/12/22 04:35:12;;;;;;;9.55;7.45;;;19.20;27.90;;;;;;5059259;28;20024;-41
2021/12/22 04:37:39;;;;;;;10.35;7.70;;;19.30;27.90;;;;;;5075680;28;20024;-39
2021/12/22 04:40:07;;;;;;;12.63;7.78;;;19.20;27.90;;;;;;5076873;28;20016;-38
2021/12/22 04:42:33;;;;;;;12.07;8.02;;;19.20;27.90;;;;;;5077316;28;20024;-41
2021/12/22 04:45:03;;;;;;;11.77;7.65;;;19.20;27.90;;;;;;5076453;28;20095;-40
2021/12/22 04:47:29;;;;;;;11.38;7.50;;;19.30;27.90;;;;;;5078007;28;20032;-42
2021/12/22 04:49:55;;;;;;;11.10;7.47;;;19.30;27.80;;;;;;5076543;28;20016;-46
2021/12/22 04:52:23;;;;;;;10.93;7.75;;;19.30;27.80;;;;;;5077642;28;20024;-39
2021/12/22 04:55:03;;;;;;;11.65;8.02;;;19.40;27.80;;;;;;5077222;28;20016;-39
2021/12/22 04:57:29;;;;;;;10.68;7.50;;;19.30;27.70;;;;;;5077104;28;20021;-39
2021/12/22 04:59:55;;;;;;;10.65;8.00;;;19.40;28.10;;;;;;5076749;28;20012;-39
2021/12/22 05:02:21;;;;;;;11.77;8.00;;;19.50;27.70;;;;;;5077949;28;20567;-39
2021/12/22 05:04:47;;;;;;;9.88;7.97;;;19.50;27.60;;;;;;5077518;28;20086;-40
2021/12/22 05:07:13;;;;;;;11.13;8.20;;;19.50;27.60;;;;;;5076514;28;20032;-41
2021/12/22 05:09:39;;;;;;;11.85;8.45;;;19.50;27.60;;;;;;5076898;28;20020;-40
2021/12/22 05:12:08;;;;;;;11.75;8.27;;;19.50;27.60;;;;;;5077613;28;20099;-40
2021/12/22 05:14:35;;;;;;;11.13;7.85;;;19.50;27.60;;;;;;5078450;28;20491;-41
2021/12/22 05:17:05;;;;;;;11.02;8.10;;;19.50;27.50;;;;;;5077503;28;20186;-40
2021/12/22 05:19:31;;;;;;;10.60;8.32;;;19.50;27.50;;;;;;5076801;28;20101;-40
2021/12/22 05:21:56;;;;;;;10.80;7.80;;;19.50;27.50;;;;;;5078299;28;20470;-39
2021/12/22 05:24:22;;;;;;;10.70;8.15;;;19.50;27.50;;;;;;5076722;28;20509;-39
2021/12/22 05:26:48;;;;;;;10.65;8.13;;;19.60;27.40;;;;;;5076168;28;20082;-39
2021/12/22 05:29:16;;;;;;;12.50;8.02;;;19.60;27.40;;;;;;5077202;28;20020;-40
2021/12/22 05:31:41;;;;;;;10.90;7.57;;;19.60;27.30;;;;;;5076084;28;20031;-40
2021/12/22 05:34:07;;;;;;;12.93;8.10;;;19.60;27.30;;;;;;5076900;28;20023;-39
2021/12/22 05:36:33;;;;;;;11.15;8.05;;;19.60;27.20;;;;;;5076459;28;20020;-41
2021/12/22 05:38:59;;;;;;;13.65;7.95;;;19.70;27.20;;;;;;5076177;28;20375;-40
2021/12/22 05:41:25;;;;;;;11.25;8.20;;;19.70;27.20;;;;;;5075625;28;20021;-39
2021/12/22 05:43:51;;;;;;;11.23;8.23;;;19.70;27.20;;;;;;5077654;28;20029;-41
2021/12/22 05:46:18;;;;;;;11.00;8.25;;;19.70;27.20;;;;;;5077591;28;20028;-38
2021/12/22 05:48:44;;;;;;;11.07;8.65;;;19.70;27.20;;;;;;5077684;28;20522;-39
2021/12/22 05:51:10;;;;;;;11.82;8.50;;;19.70;27.20;;;;;;5059589;28;20505;-40
2021/12/22 05:53:37;;;;;;;12.10;7.88;;;19.70;27.20;;;;;;5076961;28;20016;-39
2021/12/22 05:56:03;;;;;;;12.32;8.25;;;19.70;27.20;;;;;;5076827;28;20092;-39
2021/12/22 05:58:29;;;;;;;17.45;8.70;;;19.80;27.10;;;;;;5076132;28;20091;-38
2021/12/22 06:00:54;;;;;;;9.45;7.57;;;19.70;27.10;;;;;;5078201;28;20017;-39
2021/12/22 06:03:20;;;;;;;10.60;7.82;;;19.80;27.10;;;;;;5063358;28;20055;-39
2021/12/22 06:05:46;;;;;;;10.50;7.60;;;19.80;27.00;;;;;;5081165;28;20024;-38
2021/12/22 06:08:12;;;;;;;10.43;7.80;;;19.80;26.90;;;;;;5081121;28;20105;-39
2021/12/22 06:10:38;;;;;;;11.70;8.57;;;19.80;26.90;;;;;;5080259;28;20021;-39
2021/12/22 06:13:05;;;;;;;10.60;7.93;;;19.80;26.90;;;;;;5078997;28;20080;-39
2021/12/22 06:15:31;;;;;;;11.40;8.70;;;19.80;26.90;;;;;;5078765;28;20058;-38
2021/12/22 06:17:59;;;;;;;12.65;8.07;;;19.80;26.90;;;;;;5118433;28;20039;-38
2021/12/22 06:20:25;;;;;;;11.27;8.30;;;19.80;26.90;;;;;;5120943;28;20042;-38
2021/12/22 06:22:51;;;;;;;11.20;8.35;;;19.80;26.90;;;;;;5120970;28;20012;-39
2021/12/22 06:25:17;;;;;;;12.13;8.00;;;19.80;26.90;;;;;;5121305;28;20015;-39
2021/12/22 06:27:43;;;;;;;11.40;8.38;;;19.80;26.90;;;;;;5120471;28;20023;-40
2021/12/22 06:30:10;;;;;;;9.82;7.90;;;19.90;26.90;;;;;;5120914;28;20498;-40
2021/12/22 06:32:36;;;;;;;10.43;8.05;;;19.90;26.80;;;;;;5119946;28;20019;-39
2021/12/22 06:35:02;;;;;;;10.73;8.45;;;19.90;26.80;;;;;;5085320;28;20019;-39
2021/12/22 06:37:28;;;;;;;11.48;8.18;;;20.00;26.80;;;;;;5120003;28;20493;-38
2021/12/22 06:39:54;;;;;;;10.73;8.20;;;19.90;26.70;;;;;;5120067;28;20065;-38
2021/12/22 06:42:20;;;;;;;11.77;8.38;;;19.90;26.70;;;;;;5120036;28;20136;-39
2021/12/22 06:44:46;;;;;;;12.68;8.00;;;19.90;26.70;;;;;;5101167;28;20404;-38
2021/12/22 06:47:12;;;;;;;12.27;8.20;;;19.90;26.70;;;;;;5101825;28;20085;-39
2021/12/22 06:49:38;;;;;;;12.15;8.48;;;19.90;26.70;;;;;;5121716;28;20011;-39
2021/12/22 06:52:04;;;;;;;10.43;7.72;;;20.00;26.70;;;;;;5120819;28;20020;-40
2021/12/22 06:54:31;;;;;;;12.65;8.65;;;19.90;26.60;;;;;;5119844;28;20584;-40
2021/12/22 06:56:56;;;;;;;11.15;8.10;;;20.00;26.60;;;;;;5119595;28;20020;-39
2021/12/22 06:59:22;;;;;;;12.93;8.52;;;20.00;26.60;;;;;;5120001;28;20020;-39
2021/12/22 07:01:50;;;;;;;12.07;8.98;;;20.00;26.60;;;;;;5118937;28;20022;-39
2021/12/22 07:04:15;;;;;;;12.20;8.30;;;20.00;26.90;;;;;;5119877;28;20026;-39
2021/12/22 07:06:41;;;;;;;10.95;8.20;;;20.10;26.50;;;;;;5119732;28;20107;-39
2021/12/22 07:09:07;;;;;;;10.63;8.57;;;20.10;26.50;;;;;;5084557;28;20483;-38
2021/12/22 07:11:34;;;;;;;13.70;8.80;;;20.00;26.50;;;;;;5119050;28;20043;-41
2021/12/22 07:14:00;;;;;;;11.85;8.32;;;20.00;26.50;;;;;;5120145;28;20535;-39
2021/12/22 07:16:26;;;;;;;10.73;7.95;;;20.00;26.50;;;;;;5120195;28;20131;-39
2021/12/22 07:18:52;;;;;;;12.60;8.50;;;20.10;26.90;;;;;;5120049;28;20049;-38
2021/12/22 07:21:18;;;;;;;12.30;8.43;;;20.10;26.50;;;;;;5120361;28;20126;-38
2021/12/22 07:23:44;;;;;;;12.35;8.50;;;20.00;26.10;;;;;;5101515;28;20076;-38
2021/12/22 07:26:13;;;;;;;12.40;8.80;;;20.00;26.40;;;;;;5119465;28;20114;-43
2021/12/22 07:28:48;;;;;;;11.10;8.48;;;20.00;26.40;;;;;;5119705;28;20016;-39
2021/12/22 07:31:14;;;;;;;11.73;8.18;;;20.10;26.40;;;;;;5119579;28;20016;-41
2021/12/22 07:34:03;;;;;;;11.73;8.50;;;20.10;26.30;;;;;;5119346;28;20016;-41
2021/12/22 07:36:29;;;;;;;12.07;8.15;;;20.10;26.30;;;;;;5103646;28;20168;-40
2021/12/22 07:38:59;;;;;;;11.18;8.25;;;20.20;26.30;;;;;;5100556;28;20056;-39
2021/12/22 07:41:24;;;;;;;13.35;8.65;;;20.20;26.30;;;;;;5119675;28;20085;-39
2021/12/22 07:43:50;;;;;;;11.75;8.55;;;20.10;26.80;;;;;;5119304;28;20412;-39
2021/12/22 07:46:16;;;;;;;11.50;8.50;;;20.10;26.30;;;;;;5118575;28;20051;-38
2021/12/22 07:48:43;;;;;;;12.80;8.23;;;20.10;26.30;;;;;;5083734;28;20023;-39
2021/12/22 07:51:08;;;;;;;11.82;8.27;;;20.10;26.30;;;;;;5084201;28;20024;-40
2021/12/22 07:53:34;;;;;;;14.02;8.85;;;20.10;26.30;;;;;;5119287;28;20011;-39
2021/12/22 07:56:00;;;;;;;12.63;8.38;;;20.20;26.20;;;;;;5119198;28;20024;-45
2021/12/22 07:58:26;;;;;;;13.25;8.52;;;20.20;26.60;;;;;;5100942;28;20020;-43
2021/12/22 08:00:52;;;;;;;13.45;8.27;;;20.20;26.10;;;;;;5119138;28;20027;-38
2021/12/22 08:03:18;;;;;;;10.93;8.23;;;20.20;26.10;;;;;;5118962;28;20105;-41
2021/12/22 08:05:45;;;;;;;13.52;8.27;;;20.30;26.10;;;;;;5100484;28;20110;-42
2021/12/22 08:08:10;;;;;;;11.73;8.32;;;20.30;26.10;;;;;;5118736;28;20043;-39
2021/12/22 08:10:36;;;;;;;13.02;9.13;;;20.30;26.00;;;;;;5100727;28;20016;-40
2021/12/22 08:13:03;;;;;;;11.68;8.73;;;20.20;26.10;;;;;;5100309;28;20023;-42
2021/12/22 08:15:28;;;;;;;14.20;8.45;;;20.20;26.10;;;;;;5118425;28;20479;-39
2021/12/22 08:17:56;;;;;;;13.00;8.52;;;20.30;26.10;;;;;;5100016;28;20054;-39
2021/12/22 08:20:22;;;;;;;11.43;8.35;;;20.30;26.10;;;;;;5118444;28;20012;-40
2021/12/22 08:22:48;;;;;;;10.73;8.13;;;20.30;26.00;;;;;;5118504;28;20016;-42
2021/12/22 08:25:14;;;;;;;11.73;8.82;;;20.30;26.00;;;;;;5099628;28;20011;-40
2021/12/22 08:27:39;;;;;;;12.18;7.70;;;20.40;26.00;;;;;;5100399;28;20034;-41
2021/12/22 08:30:05;;;;;;;12.05;8.45;;;20.50;25.90;;;;;;5119215;28;20035;-41
2021/12/22 08:32:31;;;;;;;11.32;8.35;;;20.50;25.90;;;;;;5119024;28;20034;-41
2021/12/22 08:34:57;;;;;;;12.70;8.48;;;20.50;25.80;;;;;;5100437;28;20011;-40
2021/12/22 08:40:09;;;;;;;10.93;8.50;;;20.50;25.80;;;;;;5119170;28;20070;-40
2021/12/22 08:42:35;;;;;;;10.85;8.05;;;20.50;25.80;;;;;;5118369;28;20007;-40
2021/12/22 08:45:01;;;;;;;13.35;8.25;;;20.60;25.80;;;;;;5119429;28;20027;-40
2021/12/22 08:47:27;;;;;;;10.80;8.52;;;20.60;25.80;;;;;;5119720;28;20042;-47
2021/12/22 08:49:54;;;;;;;11.68;7.85;;;20.60;25.70;;;;;;5119772;28;20011;-39
2021/12/22 08:52:20;;;;;;;11.50;8.23;;;20.60;25.70;;;;;;5101045;28;20008;-42
2021/12/22 08:54:46;;;;;;;12.68;7.97;;;20.70;25.70;;;;;;5083793;28;20684;-38
2021/12/22 08:57:12;;;;;;;10.27;7.75;;;20.70;25.70;;;;;;5118805;28;20042;-48
2021/12/22 08:59:38;;;;;;;14.20;8.43;;;20.80;25.70;;;;;;5119321;28;20026;-42
2021/12/22 09:02:04;;;;;;;10.90;8.07;;;20.80;25.60;;;;;;5119496;28;20058;-42
2021/12/22 09:04:29;;;;;;;11.85;8.20;;;20.80;25.60;;;;;;5118542;28;20023;-41
2021/12/22 09:06:55;;;;;;;10.52;7.93;;;20.80;25.70;;;;;;5117921;28;20031;-40
2021/12/22 09:09:21;;;;;;;12.40;7.60;;;20.80;25.70;;;;;;5118468;28;20016;-39
2021/12/22 09:11:47;;;;;;;11.48;7.70;;;20.90;26.10;;;;;;5118792;28;20016;-41
2021/12/22 09:14:13;;;;;;;10.88;7.88;;;20.90;25.60;;;;;;5117361;28;20445;-38
2021/12/22 09:16:40;;;;;;;12.77;8.32;;;21.00;25.60;;;;;;5116953;28;20068;-39
2021/12/22 09:19:06;;;;;;;10.32;7.90;;;21.10;25.50;;;;;;5117448;28;20035;-40
2021/12/22 09:21:32;;;;;;;10.05;7.75;;;21.20;25.60;;;;;;5118317;28;20012;-42
2021/12/22 09:24:00;;;;;;;11.75;7.78;;;21.20;25.50;;;;;;5099194;28;20496;-38
2021/12/22 09:26:26;;;;;;;10.85;7.88;;;21.20;25.50;;;;;;5118424;28;20054;-43
2021/12/22 09:28:54;;;;;;;11.93;7.82;;;21.30;25.40;;;;;;5118478;28;20016;-40
2021/12/22 09:31:20;;;;;;;10.98;7.65;;;21.30;25.40;;;;;;5118231;28;20012;-40
2021/12/22 09:33:46;;;;;;;10.50;7.47;;;21.50;25.40;;;;;;5100392;28;20377;-41
2021/12/22 09:36:12;;;;;;;10.45;7.40;;;21.50;25.30;;;;;;5118272;28;20016;-39
2021/12/22 09:38:38;;;;;;;10.57;8.05;;;21.50;25.30;;;;;;5119106;28;20020;-39
2021/12/22 09:41:05;;;;;;;9.60;7.28;;;21.60;25.20;;;;;;5083364;28;20012;-41
2021/12/22 09:43:32;;;;;;;9.93;7.32;;;21.70;25.20;;;;;;5118022;28;20128;-40
2021/12/22 09:46:04;;;;;;;12.27;7.82;;;21.70;25.10;;;;;;5118002;28;20535;-39
2021/12/22 09:48:49;;;;;;;9.75;7.43;;;21.80;25.20;;;;;;5117637;28;20015;-39
2021/12/22 09:53:48;;;;;;;9.17;6.90;;;21.80;25.10;;;;;;5118540;28;20015;-41
2021/12/22 09:56:15;;;;;;;9.80;7.25;;;21.80;25.10;;;;;;5118804;28;20027;-39
2021/12/22 09:58:43;;;;;;;9.90;7.25;;;21.90;25.10;;;;;;5118167;28;20051;-40
2021/12/22 10:01:09;;;;;;;10.68;7.38;;;21.90;25.00;;;;;;5118422;28;20494;-38
2021/12/22 10:03:35;;;;;;;9.13;7.40;;;21.90;25.00;;;;;;5100823;28;20076;-43
2021/12/22 10:06:02;;;;;;;13.38;7.85;;;21.90;25.10;;;;;;5118696;28;20020;-41
2021/12/22 10:08:29;;;;;;;9.00;7.18;;;21.90;25.00;;;;;;5117996;28;20022;-38
2021/12/22 10:11:06;;;;;;;10.63;7.70;;;22.00;25.00;;;;;;5118933;28;20102;-39
2021/12/22 10:13:31;;;;;;;10.90;6.95;;;22.10;25.00;;;;;;5118357;28;20012;-39
2021/12/22 10:15:58;;;;;;;11.73;7.32;;;22.10;24.90;;;;;;5117039;28;20466;-38
2021/12/22 10:18:25;;;;;;;11.35;7.45;;;22.10;25.30;;;;;;5117989;28;20031;-44
2021/12/22 10:20:53;;;;;;;9.27;7.20;;;22.20;24.90;;;;;;5118160;28;20374;-38
2021/12/22 10:23:25;;;;;;;10.15;7.32;;;22.20;24.90;;;;;;5118151;28;20019;-39
2021/12/22 10:25:53;;;;;;;8.68;6.60;;;22.20;24.90;;;;;;5118380;28;20027;-38
2021/12/22 10:28:19;;;;;;;9.68;7.07;;;22.20;25.00;;;;;;5118458;28;20064;-39
2021/12/22 10:30:45;;;;;;;9.63;7.10;;;22.20;25.00;;;;;;5117398;28;20020;-39
2021/12/22 10:33:17;;;;;;;10.07;7.70;;;22.20;25.10;;;;;;5117908;28;20073;-39
2021/12/22 10:35:45;;;;;;;10.15;7.05;;;22.20;25.20;;;;;;5117906;28;20444;-42
2021/12/22 10:38:12;;;;;;;10.93;7.20;;;22.20;25.10;;;;;;5099536;28;20019;-38
2021/12/22 10:40:43;;;;;;;10.30;6.68;;;22.20;25.20;;;;;;5117129;28;20098;-38
2021/12/22 10:43:25;;;;;;;9.68;7.03;;;22.20;25.20;;;;;;5117981;28;20062;-38
2021/12/22 10:45:53;;;;;;;9.23;6.43;;;22.20;25.20;;;;;;5117162;28;20024;-38
2021/12/22 10:51:08;;;;;;;9.77;7.05;;;22.20;25.30;;;;;;5106353;28;20073;-39
2021/12/22 10:53:44;;;;;;;10.23;6.93;;;22.20;25.30;;;;;;5121320;28;20031;-40
2021/12/22 10:56:46;;;;;;;9.57;6.47;;;22.20;25.40;;;;;;5120923;28;20012;-39
2021/12/22 10:59:19;;;;;;;8.65;6.65;;;22.10;25.40;;;;;;5107773;28;20439;-38
2021/12/22 11:01:57;;;;;;;8.50;6.43;;;22.10;25.50;;;;;;5119388;28;20019;-39
2021/12/22 11:04:28;;;;;;;7.60;6.15;;;22.20;25.50;;;;;;5119254;28;20042;-39
2021/12/22 11:06:56;;;;;;;9.20;6.40;;;22.20;25.40;;;;;;5118867;28;20023;-38
2021/12/22 11:09:22;;;;;;;8.23;6.35;;;22.20;25.40;;;;;;5118924;28;20433;-41
2021/12/22 11:11:52;;;;;;;8.35;6.32;;;22.30;25.40;;;;;;5119429;28;20090;-39
2021/12/22 11:14:24;;;;;;;8.43;6.30;;;22.30;25.40;;;;;;5119948;28;20083;-39
2021/12/22 11:16:54;;;;;;;8.20;6.15;;;22.20;25.40;;;;;;5119385;28;20052;-40
2021/12/22 11:19:21;;;;;;;9.48;6.72;;;22.20;25.40;;;;;;5119244;28;20019;-38
2021/12/22 11:22:12;;;;;;;8.55;6.20;;;22.20;25.50;;;;;;5119198;28;20470;-38
2021/12/22 11:24:49;;;;;;;9.35;6.75;;;22.20;25.50;;;;;;5119785;28;20019;-43
2021/12/22 11:27:17;;;;;;;7.72;5.70;;;22.30;25.50;;;;;;5084660;28;20026;-41
2021/12/22 11:29:44;;;;;;;9.75;6.07;;;22.20;25.50;;;;;;5119444;28;20094;-38
2021/12/22 11:32:13;;;;;;;8.52;5.68;;;22.30;25.50;;;;;;5119637;28;20007;-40
2021/12/22 11:34:39;;;;;;;8.93;5.90;;;22.30;25.50;;;;;;5085336;28;20506;-40
2021/12/22 11:37:06;;;;;;;7.82;5.32;;;22.20;25.60;;;;;;5119586;28;20023;-39
2021/12/22 11:39:35;;;;;;;9.00;6.18;;;22.10;25.60;;;;;;5119367;28;20160;-38
2021/12/22 11:42:04;;;;;;;7.03;5.65;;;22.10;25.60;;;;;;5119690;28;20481;-43
2021/12/22 11:44:32;;;;;;;7.72;5.57;;;22.00;25.70;;;;;;5120471;28;20027;-40
2021/12/22 11:47:06;;;;;;;9.43;6.03;;;21.90;26.20;;;;;;5121107;28;20112;-39
2021/12/22 11:49:34;;;;;;;7.60;5.78;;;21.80;25.80;;;;;;5102133;28;20008;-41
2021/12/22 11:52:01;;;;;;;9.50;6.10;;;21.80;26.00;;;;;;5102268;28;20022;-42
2021/12/22 11:54:28;;;;;;;8.15;5.88;;;21.70;26.10;;;;;;5101990;28;20412;-38
2021/12/22 11:56:58;;;;;;;8.35;5.65;;;21.60;26.10;;;;;;5119861;28;20565;-38
2021/12/22 11:59:37;;;;;;;10.45;5.65;;;21.50;26.20;;;;;;5117987;28;20056;-39
2021/12/22 12:02:33;;;;;;;11.23;6.00;;;21.40;26.30;;;;;;5118907;28;20076;-39
2021/12/22 12:05:13;;;;;;;11.43;5.32;;;21.30;26.40;;;;;;5118461;28;20050;-38
2021/12/22 12:07:41;;;;;;;10.00;6.07;;;21.20;26.50;;;;;;5118155;28;20048;-39
2021/12/22 12:10:31;;;;;;;13.18;5.82;;;21.10;26.60;;;;;;5118687;28;20015;-40
2021/12/22 12:13:03;;;;;;;8.98;5.88;;;21.00;26.70;;;;;;5117589;28;20027;-38
2021/12/22 12:22:09;;;;;;;10.85;5.93;;;20.80;27.00;;;;;;5119683;28;20031;-39
2021/12/22 12:24:54;;;;;;;14.98;6.50;;;20.70;27.10;;;;;;5100025;28;20024;-39
2021/12/22 12:27:39;;;;;;;11.80;5.53;;;20.60;27.30;;;;;;5117812;28;20031;-38
2021/12/22 12:30:25;;;;;;;9.95;5.32;;;20.50;27.40;;;;;;5099739;28;20016;-38
2021/12/22 12:32:54;;;;;;;11.45;5.68;;;20.40;27.50;;;;;;5117890;28;20090;-38
2021/12/22 12:35:23;;;;;;;9.60;5.07;;;20.30;27.60;;;;;;5117175;28;20433;-39
2021/12/22 12:37:56;;;;;;;12.32;5.50;;;20.30;27.70;;;;;;5116585;28;20489;-39
2021/12/22 12:40:22;;;;;;;10.93;5.38;;;20.20;27.80;;;;;;5117755;28;20024;-39
2021/12/22 12:42:56;;;;;;;12.18;5.85;;;20.20;27.90;;;;;;5117608;28;20098;-39
2021/12/22 12:45:42;;;;;;;15.48;5.80;;;20.10;28.00;;;;;;5116142;28;20015;-39
2021/12/22 12:48:26;;;;;;;10.95;5.35;;;20.00;28.10;;;;;;5116495;28;20031;-39
2021/12/22 12:51:14;;;;;;;9.68;5.60;;;20.00;28.20;;;;;;5116204;28;20019;-38
2021/12/22 12:53:44;;;;;;;10.20;5.68;;;19.90;28.30;;;;;;5098129;28;20023;-38
2021/12/22 12:56:10;;;;;;;10.80;5.18;;;19.90;28.40;;;;;;5098307;28;20044;-38
2021/12/22 12:58:55;;;;;;;10.50;4.88;;;19.80;28.50;;;;;;5116577;28;20012;-40
2021/12/22 13:01:46;;;;;;;8.18;4.95;;;19.80;28.70;;;;;;5116213;28;20036;-38
2021/12/22 13:04:35;;;;;;;7.72;5.05;;;19.70;28.80;;;;;;5116041;28;20547;-38
2021/12/22 13:07:18;;;;;;;12.15;5.63;;;19.70;28.90;;;;;;5116063;28;20505;-41
2021/12/22 13:09:48;;;;;;;9.93;5.32;;;19.60;29.00;;;;;;5115934;28;20526;-41